Time;durP1;ratioP1;P1;durP2;ratioP2;P2;SDS_P1;SDS_P2;PMS_P1;PMS_P2;Temp;Humidity;BMP_temperature;BMP_pressure;BME280_temperature;BME280_humidity;BME280_pressure;Samples;Min_cycle;Max_cycle;Signal;HPM_P1;HPM_P2
2022/11/02 00:01:52;;;;;;;79.67;32.27;;;10.50;99.90;;;;;;4978965;28;20216;-75
2022/11/02 00:04:19;;;;;;;82.07;30.97;;;10.50;99.90;;;;;;4996844;28;20201;-75
2022/11/02 00:06:46;;;;;;;77.00;31.23;;;10.40;99.90;;;;;;4978929;28;20201;-76
2022/11/02 00:09:13;;;;;;;80.87;31.90;;;10.50;99.90;;;;;;4979044;28;20189;-76
2022/11/02 00:11:40;;;;;;;80.53;32.17;;;10.40;99.90;;;;;;4978931;28;20215;-75
2022/11/02 00:14:07;;;;;;;84.60;31.93;;;10.50;99.90;;;;;;4996651;28;20228;-75
2022/11/02 00:16:37;;;;;;;66.57;28.67;;;10.50;99.90;;;;;;4978445;28;20240;-75
2022/11/02 00:19:05;;;;;;;75.70;28.97;;;10.50;99.90;;;;;;4979007;28;20196;-76
2022/11/02 00:21:33;;;;;;;69.33;27.97;;;10.50;99.90;;;;;;4978841;28;20285;-76
2022/11/02 00:24:00;;;;;;;71.23;27.97;;;10.60;99.90;;;;;;4978489;28;20252;-75
2022/11/02 00:26:29;;;;;;;67.80;28.10;;;10.50;99.90;;;;;;4978853;28;20208;-75
2022/11/02 00:28:57;;;;;;;65.97;27.47;;;10.70;99.90;;;;;;4995961;28;20189;-75
2022/11/02 00:31:24;;;;;;;67.00;28.37;;;10.60;99.90;;;;;;4978429;28;20668;-75
2022/11/02 00:33:51;;;;;;;64.37;28.00;;;10.70;99.90;;;;;;4996216;28;20788;-75
2022/11/02 00:36:18;;;;;;;55.57;27.37;;;10.80;99.90;;;;;;4978331;28;20646;-76
2022/11/02 00:38:45;;;;;;;53.57;27.20;;;10.80;99.90;;;;;;4978357;28;20201;-76
2022/11/02 00:41:12;;;;;;;52.33;27.47;;;10.70;99.90;;;;;;4962772;28;20201;-76
2022/11/02 00:43:39;;;;;;;52.40;27.80;;;10.70;99.90;;;;;;4978400;28;20200;-76
2022/11/02 00:46:05;;;;;;;53.03;28.23;;;10.70;99.90;;;;;;4995541;28;20200;-76
2022/11/02 00:48:32;;;;;;;52.83;27.87;;;10.80;99.90;;;;;;4978424;28;20204;-76
2022/11/02 00:50:59;;;;;;;54.13;28.53;;;10.70;99.90;;;;;;4978627;28;20259;-76
2022/11/02 00:53:26;;;;;;;58.53;29.70;;;10.70;99.90;;;;;;4995521;28;20193;-76
2022/11/02 00:55:53;;;;;;;56.97;30.13;;;10.80;99.90;;;;;;4995412;28;20252;-74
2022/11/02 00:58:20;;;;;;;60.87;30.47;;;10.80;99.90;;;;;;4978358;28;20216;-76
2022/11/02 01:00:47;;;;;;;61.00;30.43;;;10.80;99.90;;;;;;4977890;28;20200;-76
2022/11/02 01:03:14;;;;;;;61.60;31.73;;;10.80;99.90;;;;;;4978499;28;20182;-76
2022/11/02 01:05:41;;;;;;;60.23;30.23;;;10.70;99.90;;;;;;4977844;28;20208;-75
2022/11/02 01:08:08;;;;;;;62.23;31.87;;;10.70;99.90;;;;;;4977563;28;20201;-75
2022/11/02 01:10:35;;;;;;;59.57;29.90;;;10.70;99.90;;;;;;4977949;28;20255;-76
2022/11/02 01:13:02;;;;;;;63.17;31.23;;;10.70;99.90;;;;;;4977770;28;20593;-76
2022/11/02 01:15:28;;;;;;;59.13;30.57;;;10.70;99.90;;;;;;4977335;28;20294;-76
2022/11/02 01:17:56;;;;;;;60.27;30.77;;;10.80;99.90;;;;;;4995139;28;20200;-75
2022/11/02 01:20:23;;;;;;;60.37;31.00;;;10.80;99.90;;;;;;4977620;28;20291;-75
2022/11/02 01:22:49;;;;;;;61.77;30.70;;;10.90;99.90;;;;;;4974385;28;20208;-75
2022/11/02 01:25:20;;;;;;;62.10;30.73;;;10.80;99.90;;;;;;4958027;28;20201;-76
2022/11/02 01:27:47;;;;;;;66.27;32.03;;;10.80;99.90;;;;;;4975754;28;20193;-75
2022/11/02 01:30:14;;;;;;;63.23;30.97;;;10.90;99.90;;;;;;4958225;28;20272;-76
2022/11/02 01:32:41;;;;;;;63.80;31.07;;;10.90;99.90;;;;;;4975531;28;20204;-76
2022/11/02 01:35:09;;;;;;;67.90;32.33;;;11.00;99.90;;;;;;4957836;28;20652;-76
2022/11/02 01:37:36;;;;;;;67.63;32.50;;;11.00;99.90;;;;;;4975238;28;20242;-75
2022/11/02 01:40:03;;;;;;;68.80;32.53;;;11.00;99.90;;;;;;4958133;28;20193;-76
2022/11/02 01:42:30;;;;;;;69.03;32.40;;;11.00;99.90;;;;;;4957942;28;20200;-76
2022/11/02 01:44:57;;;;;;;66.17;32.53;;;10.80;99.90;;;;;;4975330;28;20667;-76
2022/11/02 01:47:30;;;;;;;67.80;33.47;;;10.90;99.90;;;;;;4957913;28;20593;-76
2022/11/02 01:50:12;;;;;;;71.27;33.47;;;10.90;99.90;;;;;;4957773;28;20606;-76
2022/11/02 01:52:40;;;;;;;70.27;34.40;;;10.90;99.90;;;;;;4973717;28;20231;-76
2022/11/02 01:55:15;;;;;;;69.90;34.70;;;10.90;99.90;;;;;;4973737;28;20201;-76
2022/11/02 01:57:46;;;;;;;73.30;33.40;;;10.90;99.90;;;;;;4957866;28;20655;-75
2022/11/02 02:00:15;;;;;;;73.47;32.10;;;11.00;99.90;;;;;;4973757;28;20258;-76
2022/11/02 02:02:59;;;;;;;77.77;33.00;;;10.90;99.90;;;;;;4957400;28;20222;-75
2022/11/02 02:05:28;;;;;;;70.60;32.70;;;10.80;99.90;;;;;;4957390;28;20201;-75
2022/11/02 02:07:55;;;;;;;74.50;32.50;;;10.90;99.90;;;;;;4957371;28;20208;-76
2022/11/02 02:10:23;;;;;;;73.83;33.67;;;10.80;99.90;;;;;;4957373;28;20683;-75
2022/11/02 02:12:50;;;;;;;73.13;31.17;;;10.80;99.90;;;;;;4957668;28;20201;-75
2022/11/02 02:15:17;;;;;;;81.27;31.97;;;10.90;99.90;;;;;;4957306;28;20221;-75
2022/11/02 02:17:51;;;;;;;73.87;31.03;;;10.80;99.90;;;;;;4957052;28;20252;-75
2022/11/02 02:20:33;;;;;;;78.27;32.20;;;10.90;99.90;;;;;;4957254;28;20196;-75
2022/11/02 02:23:06;;;;;;;89.73;32.73;;;11.00;99.90;;;;;;4957023;28;20229;-75
2022/11/02 02:25:51;;;;;;;84.90;32.70;;;10.90;99.90;;;;;;4973493;28;20212;-75
2022/11/02 02:28:40;;;;;;;84.57;31.97;;;10.90;99.90;;;;;;4957111;28;20190;-75
2022/11/02 02:31:39;;;;;;;85.03;32.90;;;11.00;99.90;;;;;;4957101;28;20298;-75
2022/11/02 02:34:46;;;;;;;92.60;33.17;;;11.00;99.90;;;;;;4950224;28;20671;-78
2022/11/02 02:37:17;;;;;;;92.13;32.53;;;10.90;99.90;;;;;;4955875;28;20232;-75
2022/11/02 02:39:59;;;;;;;98.27;35.17;;;11.00;99.90;;;;;;4957305;28;20643;-76
2022/11/02 02:42:34;;;;;;;98.07;33.83;;;10.90;99.90;;;;;;4973183;28;20209;-76
2022/11/02 02:45:17;;;;;;;99.90;34.87;;;10.90;99.90;;;;;;4956665;28;20192;-75
2022/11/02 02:47:53;;;;;;;103.90;34.73;;;10.90;99.90;;;;;;4956842;28;20198;-75
2022/11/02 02:50:25;;;;;;;102.77;34.07;;;10.90;99.90;;;;;;4972997;28;20193;-75
2022/11/02 02:52:54;;;;;;;116.63;37.57;;;10.90;99.90;;;;;;4972996;28;20229;-75
2022/11/02 02:55:25;;;;;;;117.00;37.23;;;10.90;99.90;;;;;;4956946;28;20193;-76
2022/11/02 02:57:55;;;;;;;120.67;37.67;;;11.00;99.90;;;;;;4956675;28;20253;-75
2022/11/02 03:00:21;;;;;;;113.07;37.17;;;10.90;99.90;;;;;;4972939;28;20256;-75
2022/11/02 03:03:02;;;;;;;131.50;37.60;;;11.00;99.90;;;;;;4956528;28;20225;-75
2022/11/02 03:05:30;;;;;;;122.10;38.90;;;10.90;99.90;;;;;;4972672;28;20197;-76
2022/11/02 03:08:03;;;;;;;130.43;39.10;;;10.90;99.90;;;;;;4974116;28;20655;-74
2022/11/02 03:10:35;;;;;;;120.37;37.60;;;10.90;99.90;;;;;;4956684;28;20189;-74
2022/11/02 03:13:17;;;;;;;136.77;40.50;;;11.00;99.90;;;;;;4973144;28;20205;-75
2022/11/02 03:16:12;;;;;;;140.73;39.37;;;10.90;99.90;;;;;;4956500;28;20272;-75
2022/11/02 03:18:52;;;;;;;138.03;40.00;;;10.90;99.90;;;;;;4972693;28;20201;-74
2022/11/02 03:21:29;;;;;;;134.23;39.47;;;11.00;99.90;;;;;;4974017;28;20280;-74
2022/11/02 03:24:05;;;;;;;143.73;42.80;;;11.00;99.90;;;;;;4974399;28;20185;-75
2022/11/02 03:26:52;;;;;;;138.70;41.17;;;11.00;99.90;;;;;;4972733;28;20209;-75
2022/11/02 03:29:41;;;;;;;150.13;42.87;;;11.10;99.90;;;;;;4956464;28;20201;-75
2022/11/02 03:32:16;;;;;;;149.53;42.53;;;11.10;99.90;;;;;;4956759;28;20202;-75
2022/11/02 03:34:53;;;;;;;159.57;43.93;;;11.10;99.90;;;;;;4956851;28;20193;-75
2022/11/02 03:37:26;;;;;;;160.50;44.83;;;11.00;99.90;;;;;;4976162;28;20228;-75
2022/11/02 03:40:08;;;;;;;156.60;44.10;;;11.00;99.90;;;;;;4959895;28;20233;-75
2022/11/02 03:42:35;;;;;;;174.57;45.60;;;11.10;99.90;;;;;;4960261;28;20209;-75
2022/11/02 03:45:28;;;;;;;184.63;46.27;;;11.10;99.90;;;;;;4959847;28;20201;-75
2022/11/02 03:48:01;;;;;;;177.93;46.50;;;11.10;99.90;;;;;;4960049;28;20529;-75
2022/11/02 03:50:28;;;;;;;189.37;46.57;;;11.10;99.90;;;;;;4976298;28;20555;-77
2022/11/02 03:53:05;;;;;;;190.10;48.40;;;11.20;99.90;;;;;;4977376;28;20224;-75
2022/11/02 03:55:39;;;;;;;193.00;50.37;;;11.20;99.90;;;;;;4977206;28;20186;-77
2022/11/02 03:58:10;;;;;;;193.87;48.67;;;11.30;99.90;;;;;;4960024;28;20675;-77
2022/11/02 04:00:53;;;;;;;182.20;48.60;;;11.30;99.90;;;;;;4977104;28;20398;-77
2022/11/02 04:03:22;;;;;;;194.13;48.40;;;11.30;99.90;;;;;;4959426;28;20221;-77
2022/11/02 04:05:49;;;;;;;194.43;48.63;;;11.20;99.90;;;;;;4959779;28;20636;-76
2022/11/02 04:08:28;;;;;;;178.20;46.90;;;11.30;99.90;;;;;;4959786;28;20202;-78
2022/11/02 04:16:26;;;;;;;211.10;50.40;;;11.40;99.90;;;;;;4976688;28;20233;-76
2022/11/02 04:25:14;;;;;;;201.30;51.00;;;11.50;99.90;;;;;;4959415;28;20197;-76
2022/11/02 04:27:12;;;;;;;217.40;52.27;;;11.50;99.90;;;;;;4959348;28;20213;-75
2022/11/02 04:29:46;;;;;;;221.10;52.37;;;11.50;99.90;;;;;;4959422;28;20289;-75
2022/11/02 04:32:13;;;;;;;220.27;52.17;;;11.50;99.90;;;;;;4976457;28;20599;-75
2022/11/02 04:34:40;;;;;;;229.97;52.40;;;11.50;99.90;;;;;;4975215;28;20194;-75
2022/11/02 04:38:39;;;;;;;217.10;53.97;;;11.50;99.90;;;;;;4976263;28;20613;-76
2022/11/02 04:39:53;;;;;;;234.80;56.07;;;11.60;99.90;;;;;;4959366;28;20217;-75
2022/11/02 04:42:20;;;;;;;226.70;54.57;;;11.60;99.90;;;;;;4959275;28;20205;-76
2022/11/02 04:44:47;;;;;;;202.47;52.83;;;11.50;99.90;;;;;;4976174;28;20190;-75
2022/11/02 04:47:14;;;;;;;234.63;54.97;;;11.60;99.90;;;;;;4958790;28;20194;-75
2022/11/02 04:49:40;;;;;;;207.67;54.97;;;11.60;99.90;;;;;;4974867;28;20197;-75
2022/11/02 04:52:08;;;;;;;238.37;55.87;;;11.60;99.90;;;;;;4975205;28;20198;-75
2022/11/02 04:54:36;;;;;;;233.87;56.70;;;11.70;99.90;;;;;;4976075;28;20557;-76
2022/11/02 04:57:04;;;;;;;206.77;54.70;;;11.70;99.90;;;;;;4974924;28;20214;-75
2022/11/02 04:59:30;;;;;;;222.87;55.97;;;11.60;99.90;;;;;;4958855;28;20205;-75
2022/11/02 05:01:57;;;;;;;250.70;57.93;;;11.70;99.90;;;;;;4976068;28;20201;-75
2022/11/02 05:04:24;;;;;;;288.13;59.37;;;11.70;99.90;;;;;;4975941;28;20217;-75
2022/11/02 05:06:51;;;;;;;231.80;56.70;;;11.60;99.90;;;;;;4974712;28;20189;-76
2022/11/02 05:09:22;;;;;;;249.37;57.73;;;11.70;99.90;;;;;;4958378;28;20257;-75
2022/11/02 05:11:48;;;;;;;236.83;59.33;;;11.70;99.90;;;;;;4974944;28;20635;-75
2022/11/02 05:14:15;;;;;;;230.13;57.97;;;11.70;99.90;;;;;;4975472;28;20200;-76
2022/11/02 05:16:42;;;;;;;218.50;55.33;;;11.70;99.90;;;;;;4974682;28;20401;-76
2022/11/02 05:19:09;;;;;;;250.23;57.20;;;11.70;99.90;;;;;;4958266;28;20190;-75
2022/11/02 05:21:36;;;;;;;222.20;56.87;;;11.70;99.90;;;;;;4958696;28;20244;-76
2022/11/02 05:24:04;;;;;;;206.07;55.70;;;11.80;99.90;;;;;;4974327;28;20580;-76
2022/11/02 05:26:30;;;;;;;222.53;55.63;;;11.80;99.90;;;;;;4958311;28;20205;-78
2022/11/02 05:28:57;;;;;;;224.60;57.03;;;11.80;99.90;;;;;;4975707;28;20556;-78
2022/11/02 05:31:24;;;;;;;252.33;60.73;;;11.80;99.90;;;;;;4958312;28;20189;-76
2022/11/02 05:33:51;;;;;;;234.93;58.33;;;11.80;99.90;;;;;;4957988;28;20205;-76
2022/11/02 05:36:18;;;;;;;238.97;57.30;;;11.70;99.90;;;;;;4973977;28;20198;-76
2022/11/02 05:38:45;;;;;;;225.90;57.37;;;11.70;99.90;;;;;;4957689;28;20221;-76
2022/11/02 05:41:12;;;;;;;256.90;59.30;;;11.70;99.90;;;;;;4958013;28;20194;-76
2022/11/02 05:43:38;;;;;;;251.30;60.30;;;11.70;99.90;;;;;;4958149;28;20702;-76
2022/11/02 05:46:05;;;;;;;233.47;58.90;;;11.70;99.90;;;;;;4975146;28;20196;-76
2022/11/02 05:48:32;;;;;;;244.03;61.10;;;11.70;99.90;;;;;;4957674;28;20208;-76
2022/11/02 05:51:02;;;;;;;239.07;60.00;;;11.70;99.90;;;;;;4958340;28;20202;-77
2022/11/02 05:53:32;;;;;;;247.20;61.00;;;11.80;99.90;;;;;;4957795;28;20211;-75
2022/11/02 05:56:00;;;;;;;217.73;58.30;;;11.80;99.90;;;;;;4974989;28;20208;-76
2022/11/02 05:58:28;;;;;;;254.17;60.70;;;11.90;99.90;;;;;;4973475;28;20222;-73
2022/11/02 06:00:59;;;;;;;218.23;58.73;;;11.90;99.90;;;;;;4973768;28;20543;-74
2022/11/02 06:03:26;;;;;;;236.90;60.67;;;12.00;99.90;;;;;;4974929;28;20613;-74
2022/11/02 06:06:04;;;;;;;210.10;57.47;;;12.00;99.90;;;;;;4957414;28;20197;-76
2022/11/02 06:08:34;;;;;;;225.53;58.13;;;12.00;99.90;;;;;;4973939;28;20257;-74
2022/11/02 06:11:10;;;;;;;219.30;58.67;;;12.10;99.90;;;;;;4957944;28;20560;-75
2022/11/02 06:13:38;;;;;;;219.33;57.53;;;12.10;99.90;;;;;;4973414;28;20205;-74
2022/11/02 06:16:09;;;;;;;239.37;58.53;;;12.10;99.90;;;;;;4974162;28;20229;-74
2022/11/02 06:18:37;;;;;;;210.50;55.47;;;12.10;99.90;;;;;;4972968;28;20312;-73
2022/11/02 06:21:05;;;;;;;203.83;54.67;;;12.10;99.90;;;;;;4957344;28;20288;-73
2022/11/02 06:23:32;;;;;;;225.43;56.00;;;12.10;99.90;;;;;;4973503;28;20212;-72
2022/11/02 06:25:59;;;;;;;222.77;55.37;;;12.10;99.90;;;;;;4957313;28;20194;-72
2022/11/02 06:28:27;;;;;;;221.60;54.97;;;12.10;99.90;;;;;;4972939;28;20208;-74
2022/11/02 06:30:55;;;;;;;192.40;53.17;;;12.10;99.90;;;;;;4973196;28;20956;-74
2022/11/02 06:33:22;;;;;;;197.10;51.90;;;12.00;99.90;;;;;;4957461;28;20201;-75
2022/11/02 06:35:53;;;;;;;195.73;52.23;;;12.10;99.90;;;;;;4956866;28;20547;-73
2022/11/02 06:38:21;;;;;;;189.73;51.37;;;12.00;99.90;;;;;;4957072;28;20244;-73
2022/11/02 06:41:14;;;;;;;196.53;52.50;;;12.10;99.90;;;;;;4972778;28;20240;-72
2022/11/02 06:43:41;;;;;;;192.60;51.10;;;12.10;99.90;;;;;;4970926;28;20216;-73
2022/11/02 06:46:08;;;;;;;182.23;50.47;;;12.10;99.90;;;;;;4980052;23;20228;-73
2022/11/02 06:48:35;;;;;;;181.30;51.40;;;12.10;99.90;;;;;;4995531;28;20283;-75
2022/11/02 06:51:03;;;;;;;163.60;46.03;;;12.10;99.90;;;;;;4995614;28;20231;-75
2022/11/02 06:53:33;;;;;;;167.00;48.63;;;12.10;99.90;;;;;;4995916;28;20204;-74
2022/11/02 06:56:00;;;;;;;164.43;45.43;;;12.10;99.90;;;;;;4995267;28;20298;-73
2022/11/02 06:58:28;;;;;;;152.90;45.23;;;12.10;99.90;;;;;;4995759;28;20583;-75
2022/11/02 07:01:06;;;;;;;153.00;43.83;;;12.10;99.90;;;;;;4995392;28;20648;-73
2022/11/02 07:03:33;;;;;;;124.70;40.57;;;12.20;99.90;;;;;;4995164;28;20215;-73
2022/11/02 07:06:02;;;;;;;115.23;38.67;;;12.20;99.90;;;;;;5007377;23;20234;-74
2022/11/02 07:08:28;;;;;;;104.93;35.87;;;12.20;99.90;;;;;;5031429;28;20207;-74
2022/11/02 07:10:56;;;;;;;99.90;36.37;;;12.20;99.90;;;;;;5036853;28;20200;-74
2022/11/02 07:13:23;;;;;;;119.83;37.47;;;12.20;99.90;;;;;;5019403;28;20203;-76
2022/11/02 07:15:53;;;;;;;97.63;34.17;;;12.30;99.90;;;;;;5019760;28;20202;-74
2022/11/02 07:18:22;;;;;;;97.23;34.30;;;12.30;99.90;;;;;;5018860;28;20219;-76
2022/11/02 07:20:52;;;;;;;88.90;31.53;;;12.30;99.90;;;;;;5019657;28;20588;-75
2022/11/02 07:25:44;;;;;;;73.03;29.10;;;12.40;99.90;;;;;;5089940;22;20281;-75
2022/11/02 07:28:11;;;;;;;78.47;29.67;;;12.50;99.90;;;;;;5018988;28;20195;-76
2022/11/02 07:30:38;;;;;;;72.73;29.17;;;12.50;99.90;;;;;;5018919;28;20196;-74
2022/11/02 07:33:05;;;;;;;68.30;28.17;;;12.50;99.90;;;;;;5036828;28;20214;-75
2022/11/02 07:35:33;;;;;;;71.13;28.73;;;12.50;99.90;;;;;;5018489;28;20191;-74
2022/11/02 07:38:02;;;;;;;64.07;27.57;;;12.50;99.90;;;;;;5018488;28;20606;-74
2022/11/02 07:40:30;;;;;;;65.93;26.73;;;12.60;99.90;;;;;;5034859;28;20663;-74
2022/11/02 07:42:57;;;;;;;70.57;27.30;;;12.70;99.90;;;;;;5018667;28;20203;-73
2022/11/02 07:45:24;;;;;;;59.23;25.13;;;12.70;99.90;;;;;;5018225;28;20210;-77
2022/11/02 07:47:52;;;;;;;62.70;24.00;;;12.70;99.90;;;;;;5018610;28;20200;-75
2022/11/02 07:50:24;;;;;;;58.83;25.00;;;12.80;99.90;;;;;;5035959;28;20203;-73
2022/11/02 07:52:52;;;;;;;60.77;25.70;;;12.80;99.90;;;;;;5035964;28;20230;-76
2022/11/02 07:55:22;;;;;;;57.50;25.17;;;12.80;99.90;;;;;;5035721;28;20543;-77
2022/11/02 07:57:56;;;;;;;62.20;26.50;;;12.90;99.90;;;;;;5018196;28;20254;-76
2022/11/02 08:00:25;;;;;;;66.10;26.20;;;13.00;99.90;;;;;;5002105;28;20199;-75
2022/11/02 08:02:54;;;;;;;55.80;24.13;;;13.10;99.90;;;;;;5017867;28;20245;-77
2022/11/02 08:05:21;;;;;;;62.57;25.53;;;13.30;99.90;;;;;;5017792;28;20215;-77
2022/11/02 08:08:03;;;;;;;50.33;22.33;;;13.30;99.90;;;;;;5018093;28;20210;-79
2022/11/02 08:10:33;;;;;;;55.80;23.27;;;13.40;99.90;;;;;;5017786;28;20229;-81
2022/11/02 08:13:24;;;;;;;54.90;22.93;;;13.50;99.90;;;;;;4982657;28;20536;-78
2022/11/02 08:15:52;;;;;;;54.87;23.33;;;13.60;99.90;;;;;;5017762;28;20200;-76
2022/11/02 08:18:23;;;;;;;52.73;23.13;;;13.70;99.90;;;;;;5035558;28;20211;-78
2022/11/02 08:20:51;;;;;;;59.53;24.53;;;13.70;99.90;;;;;;5017183;28;20196;-74
2022/11/02 08:23:19;;;;;;;53.37;24.77;;;13.90;99.90;;;;;;5018045;28;20257;-75
2022/11/02 08:25:49;;;;;;;53.90;25.20;;;13.90;99.90;;;;;;5017562;28;20227;-76
2022/11/02 08:28:30;;;;;;;57.73;24.77;;;14.00;99.90;;;;;;5035465;28;20656;-74
2022/11/02 08:30:58;;;;;;;48.40;24.50;;;14.20;99.90;;;;;;5017580;28;20193;-75
2022/11/02 08:33:25;;;;;;;54.67;23.83;;;14.40;99.90;;;;;;5017929;28;20224;-75
2022/11/02 08:35:52;;;;;;;49.43;22.70;;;14.40;99.90;;;;;;5017447;28;20193;-73
2022/11/02 08:38:22;;;;;;;50.23;24.03;;;14.20;99.90;;;;;;5017624;28;20227;-76
2022/11/02 08:40:49;;;;;;;49.20;22.67;;;14.20;99.90;;;;;;5001206;28;20211;-76
2022/11/02 08:43:18;;;;;;;52.67;23.50;;;14.10;99.90;;;;;;5035242;28;20266;-75
2022/11/02 08:45:49;;;;;;;47.13;22.90;;;14.00;99.90;;;;;;5017323;28;20646;-76
2022/11/02 08:48:36;;;;;;;50.40;24.27;;;13.90;99.90;;;;;;5017521;28;20194;-75
2022/11/02 08:51:04;;;;;;;52.03;23.37;;;14.00;99.90;;;;;;5017124;28;20260;-75
2022/11/02 08:53:31;;;;;;;51.20;24.80;;;14.10;99.90;;;;;;5035209;28;20189;-76
2022/11/02 08:56:05;;;;;;;47.17;24.70;;;14.10;99.90;;;;;;5017134;28;20210;-75
2022/11/02 08:58:32;;;;;;;48.03;24.50;;;14.10;99.90;;;;;;5018042;28;20208;-74
2022/11/02 09:00:59;;;;;;;51.50;24.90;;;14.20;99.90;;;;;;5017175;28;20633;-74
2022/11/02 09:03:27;;;;;;;47.40;24.20;;;14.20;99.90;;;;;;5017154;28;20579;-74
2022/11/02 09:05:59;;;;;;;50.03;24.60;;;14.30;99.90;;;;;;5016741;28;20215;-74
2022/11/02 09:08:27;;;;;;;50.93;25.37;;;14.20;99.90;;;;;;5017014;28;20249;-73
2022/11/02 09:10:58;;;;;;;51.27;26.27;;;14.20;99.90;;;;;;5016715;28;20247;-75
2022/11/02 09:13:28;;;;;;;53.63;26.23;;;14.10;99.90;;;;;;5016862;28;20208;-74
2022/11/02 09:15:57;;;;;;;52.33;26.53;;;14.10;99.90;;;;;;5034463;28;20188;-74
2022/11/02 09:18:25;;;;;;;50.53;26.93;;;14.20;99.90;;;;;;5034580;28;20218;-73
2022/11/02 09:20:51;;;;;;;48.63;26.13;;;14.10;99.90;;;;;;5017012;28;20192;-75
2022/11/02 09:23:20;;;;;;;45.67;24.80;;;14.20;99.90;;;;;;5016548;28;20210;-75
2022/11/02 09:25:48;;;;;;;48.90;25.80;;;14.20;99.90;;;;;;5016813;28;20237;-74
2022/11/02 09:28:17;;;;;;;47.00;23.67;;;14.10;99.90;;;;;;5016648;28;20203;-75
2022/11/02 09:30:44;;;;;;;51.23;23.03;;;14.10;99.90;;;;;;5016444;28;20286;-73
2022/11/02 09:33:12;;;;;;;43.13;22.53;;;14.10;99.90;;;;;;5015243;28;20634;-75
2022/11/02 09:35:41;;;;;;;48.47;23.67;;;14.10;99.90;;;;;;5016420;28;20202;-75
2022/11/02 09:38:08;;;;;;;42.23;21.53;;;14.20;99.90;;;;;;5016164;28;20307;-74
2022/11/02 09:40:50;;;;;;;45.10;21.60;;;14.20;99.90;;;;;;5033865;28;20215;-73
2022/11/02 09:43:54;;;;;;;40.60;21.30;;;14.30;99.90;;;;;;5016477;28;20203;-74
2022/11/02 09:46:41;;;;;;;40.83;21.10;;;14.30;99.90;;;;;;5016256;28;20203;-72
2022/11/02 09:49:15;;;;;;;41.37;21.23;;;14.20;99.90;;;;;;5016099;28;20183;-74
2022/11/02 09:51:47;;;;;;;38.67;20.90;;;14.30;99.90;;;;;;5015980;28;20199;-74
2022/11/02 09:54:27;;;;;;;39.37;21.17;;;14.30;99.90;;;;;;5016098;28;20656;-73
2022/11/02 09:56:59;;;;;;;37.80;18.97;;;14.20;99.90;;;;;;5015910;28;20214;-75
2022/11/02 09:59:26;;;;;;;41.00;19.77;;;14.10;99.90;;;;;;5015825;28;20215;-74
2022/11/02 10:02:18;;;;;;;35.50;19.57;;;14.20;99.90;;;;;;5015807;28;20199;-72
2022/11/02 10:05:03;;;;;;;37.30;19.57;;;14.30;99.90;;;;;;5016009;28;20215;-72
2022/11/02 10:07:33;;;;;;;38.67;18.43;;;14.20;99.90;;;;;;5015723;28;20214;-75
2022/11/02 10:10:35;;;;;;;38.33;19.83;;;14.30;99.90;;;;;;5016047;28;20216;-75
2022/11/02 10:13:20;;;;;;;37.63;18.87;;;14.30;99.90;;;;;;5015672;28;20744;-76
2022/11/02 10:15:54;;;;;;;44.28;23.02;;;14.30;99.90;;;;;;4998955;28;20434;-75
2022/11/02 10:18:29;;;;;;;43.03;21.27;;;14.20;99.90;;;;;;5033058;28;20630;-76
2022/11/02 10:21:00;;;;;;;40.03;21.10;;;14.00;99.90;;;;;;5033461;28;20187;-76
2022/11/02 10:23:36;;;;;;;42.33;21.00;;;14.10;99.90;;;;;;5015545;28;20207;-77
2022/11/02 10:26:03;;;;;;;41.10;20.37;;;14.10;99.90;;;;;;5015468;28;20654;-78
2022/11/02 10:28:38;;;;;;;40.53;21.70;;;14.00;99.90;;;;;;5015570;28;20196;-75
2022/11/02 10:31:34;;;;;;;44.27;20.80;;;13.90;99.90;;;;;;5015637;28;20191;-75
2022/11/02 10:34:17;;;;;;;41.60;20.87;;;13.90;99.90;;;;;;5015667;28;20661;-80
2022/11/02 10:36:46;;;;;;;45.07;22.43;;;13.80;99.90;;;;;;5015230;28;20649;-78
2022/11/02 10:39:16;;;;;;;42.87;20.90;;;13.90;99.90;;;;;;5015057;28;20249;-76
2022/11/02 10:42:02;;;;;;;42.70;20.83;;;13.80;99.90;;;;;;4999021;28;20703;-75
2022/11/02 10:44:50;;;;;;;40.43;19.97;;;13.80;99.90;;;;;;5014779;28;20199;-76
2022/11/02 10:47:18;;;;;;;43.73;20.20;;;13.80;99.90;;;;;;5015437;28;20199;-74
2022/11/02 10:49:57;;;;;;;42.70;19.53;;;14.00;99.90;;;;;;5033188;28;20187;-76
2022/11/02 10:52:28;;;;;;;40.90;20.10;;;14.10;99.90;;;;;;4998848;28;20310;-75
2022/11/02 10:54:56;;;;;;;39.97;19.07;;;14.20;99.90;;;;;;5015367;28;20261;-75
2022/11/02 10:57:24;;;;;;;39.47;19.13;;;14.20;99.90;;;;;;5015495;28;20199;-75
2022/11/02 11:00:21;;;;;;;36.93;18.67;;;14.30;99.90;;;;;;5015147;28;20231;-74
2022/11/02 11:03:14;;;;;;;35.97;18.47;;;14.30;99.90;;;;;;5015412;28;20203;-74
2022/11/02 11:05:50;;;;;;;33.73;17.83;;;14.30;99.90;;;;;;5014667;28;20284;-75
2022/11/02 11:08:38;;;;;;;39.67;19.30;;;14.30;99.90;;;;;;5015199;28;20197;-75
2022/11/02 11:11:25;;;;;;;43.53;21.07;;;14.20;99.90;;;;;;5032503;28;20598;-78
2022/11/02 11:13:57;;;;;;;36.20;18.50;;;14.30;99.90;;;;;;5015084;28;20196;-75
2022/11/02 11:16:48;;;;;;;36.13;18.80;;;14.30;99.90;;;;;;5032332;28;20334;-75
2022/11/02 11:19:20;;;;;;;32.50;17.63;;;14.30;99.90;;;;;;5032676;28;20313;-74
2022/11/02 11:22:19;;;;;;;31.43;16.47;;;14.40;99.90;;;;;;5032517;28;20595;-73
2022/11/02 11:24:46;;;;;;;27.40;15.87;;;14.50;99.90;;;;;;4998718;28;20237;-77
2022/11/02 11:27:21;;;;;;;26.10;14.60;;;14.70;99.90;;;;;;5015050;28;20205;-75
2022/11/02 11:29:57;;;;;;;26.30;14.00;;;14.90;99.90;;;;;;5014971;28;20197;-75
2022/11/02 11:32:28;;;;;;;21.83;13.50;;;15.30;99.90;;;;;;5014893;28;20203;-75
2022/11/02 11:35:06;;;;;;;20.07;12.27;;;15.90;99.90;;;;;;5032456;28;20191;-75
2022/11/02 11:37:45;;;;;;;20.43;12.07;;;16.30;99.90;;;;;;5014364;28;20210;-76
2022/11/02 11:40:19;;;;;;;17.67;11.37;;;16.80;99.90;;;;;;5014665;28;20191;-76
2022/11/02 11:42:53;;;;;;;21.30;12.07;;;16.80;99.90;;;;;;5032284;28;20183;-76
2022/11/02 11:45:29;;;;;;;19.67;11.03;;;16.70;99.90;;;;;;5014779;28;20294;-74
2022/11/02 11:48:29;;;;;;;16.90;10.97;;;16.50;99.90;;;;;;5032528;28;20242;-75
2022/11/02 11:50:56;;;;;;;19.10;11.63;;;16.70;99.90;;;;;;5015464;28;20208;-75
2022/11/02 11:53:25;;;;;;;19.63;11.43;;;16.90;99.90;;;;;;5014548;28;20202;-76
2022/11/02 11:55:58;;;;;;;19.97;12.00;;;17.10;99.90;;;;;;5015183;28;20215;-75
2022/11/02 12:01:18;;;;;;;22.53;12.77;;;16.30;99.90;;;;;;4956007;29;20570;-77
2022/11/02 12:04:00;;;;;;;19.53;12.93;;;16.00;99.90;;;;;;4940428;29;20232;-74
2022/11/02 12:07:00;;;;;;;23.07;13.23;;;15.80;99.90;;;;;;4953398;29;20691;-75
2022/11/02 12:09:59;;;;;;;20.37;13.00;;;15.80;99.90;;;;;;4907796;29;20604;-76
2022/11/02 12:12:58;;;;;;;23.60;13.33;;;15.90;99.90;;;;;;4921619;29;20610;-77
2022/11/02 12:15:37;;;;;;;20.90;12.40;;;16.30;99.90;;;;;;4938277;29;20187;-76
2022/11/02 12:18:16;;;;;;;25.00;13.63;;;17.40;99.90;;;;;;4921352;29;20213;-77
2022/11/02 12:21:07;;;;;;;22.40;11.87;;;17.80;99.90;;;;;;4921508;29;20207;-77
2022/11/02 12:26:12;;;;;;;20.77;11.90;;;17.60;99.90;;;;;;3135500;26;20322;-78
2022/11/02 12:29:06;;;;;;;21.37;12.43;;;17.50;99.90;;;;;;4998268;28;20642;-78
2022/11/02 12:31:40;;;;;;;19.77;12.80;;;17.00;99.90;;;;;;5016244;28;20589;-76
2022/11/02 12:34:23;;;;;;;22.67;12.17;;;16.70;99.90;;;;;;5015794;28;20202;-74
2022/11/02 12:36:56;;;;;;;19.47;11.47;;;17.00;99.90;;;;;;5014118;28;20200;-76
2022/11/02 12:40:10;;;;;;;20.17;11.63;;;17.40;99.90;;;;;;5013687;28;20606;-78
2022/11/02 12:43:25;;;;;;;20.77;12.40;;;17.90;99.90;;;;;;5014529;28;20184;-78
2022/11/02 12:51:14;;;;;;;18.60;10.90;;;18.20;99.90;;;;;;5033709;28;20207;-75
2022/11/02 12:53:58;;;;;;;20.40;11.57;;;17.90;99.90;;;;;;5017218;28;20207;-80
2022/11/02 12:56:29;;;;;;;20.77;10.63;;;17.80;99.90;;;;;;5033596;28;20207;-81
2022/11/02 12:58:58;;;;;;;20.10;11.03;;;17.80;99.90;;;;;;5017113;28;20204;-79
2022/11/02 13:01:36;;;;;;;18.83;11.27;;;17.70;99.90;;;;;;5017336;28;20249;-79
2022/11/02 13:04:30;;;;;;;19.93;10.70;;;17.60;99.90;;;;;;5016936;28;20610;-76
2022/11/02 13:07:10;;;;;;;19.67;10.60;;;17.70;99.90;;;;;;4997245;28;20196;-78
2022/11/02 13:09:59;;;;;;;20.47;10.80;;;17.90;99.90;;;;;;4997142;28;20192;-75
2022/11/02 13:12:27;;;;;;;20.10;10.43;;;18.20;99.90;;;;;;5014447;28;20569;-77
2022/11/02 13:14:56;;;;;;;17.47;10.60;;;18.70;99.90;;;;;;5013449;28;20714;-79
2022/11/02 13:17:35;;;;;;;17.60;10.80;;;18.80;99.90;;;;;;4997107;28;20223;-79